Terminal Aerodrome Forecast
Issued by NWS Grand Rapids, MI

Home | Current Version | Previous Version | Text Only | Print | Product List | Glossary On
Versions: 1 2 3 4 5 6 7 8 9 10 11 12 13 14 15 16 17 18 19 20 21 22 23 24 25
000
FTUS43 KGRR 200500
TAFGRR
TAF
KGRR 200540Z 2006/2106 21004KT 4SM BR BKN050
     FM201000 25004KT 2SM BR BKN003
     FM201100 26004KT 1/2SM FG OVC002
     FM201400 27005KT 4SM BR BKN025
     FM201700 27009KT P6SM VCSH BKN050=

USA.gov is the U.S. government's official web portal to all federal, state and local government web resources and services.